Time;durP1;ratioP1;P1;durP2;ratioP2;P2;SDS_P1;SDS_P2;PMS_P1;PMS_P2;Temp;Humidity;BMP_temperature;BMP_pressure;BME280_temperature;BME280_humidity;BME280_pressure;Samples;Min_cycle;Max_cycle;Signal;HPM_P1;HPM_P2
2023/01/06 00:00:36;;;;;;;6.85;2.30;;;11.70;99.90;;;;;;5016568;28;20470;-75
2023/01/06 00:03:02;;;;;;;7.85;2.40;;;11.60;99.90;;;;;;5032847;28;20029;-76
2023/01/06 00:05:29;;;;;;;10.27;2.67;;;11.60;99.90;;;;;;5032961;28;20026;-76
2023/01/06 00:07:55;;;;;;;6.70;2.45;;;11.60;99.90;;;;;;5032740;28;20073;-76
2023/01/06 00:10:22;;;;;;;5.95;2.22;;;11.60;99.90;;;;;;5032911;28;20528;-76
2023/01/06 00:12:48;;;;;;;9.13;2.15;;;11.60;99.90;;;;;;5032830;28;20112;-75
2023/01/06 00:15:15;;;;;;;7.65;2.05;;;11.60;99.90;;;;;;5016418;28;20604;-76
2023/01/06 00:17:41;;;;;;;13.73;2.80;;;11.60;99.90;;;;;;5033940;28;20032;-76
2023/01/06 00:20:08;;;;;;;6.80;2.53;;;11.60;99.90;;;;;;5032676;28;20029;-75
2023/01/06 00:22:34;;;;;;;9.63;2.60;;;11.60;99.90;;;;;;5032862;28;20386;-76
2023/01/06 00:24:59;;;;;;;10.25;3.53;;;11.50;99.90;;;;;;5032592;28;20039;-75
2023/01/06 00:27:25;;;;;;;5.82;2.15;;;11.60;99.90;;;;;;5032420;28;20129;-75
2023/01/06 00:29:51;;;;;;;7.38;2.60;;;11.60;99.90;;;;;;5033319;28;20046;-76
2023/01/06 00:32:17;;;;;;;6.32;2.40;;;11.60;99.90;;;;;;5032969;28;20041;-75
2023/01/06 00:34:43;;;;;;;6.82;3.08;;;11.50;99.90;;;;;;5034007;28;20104;-76
2023/01/06 00:37:09;;;;;;;8.70;3.00;;;11.50;99.90;;;;;;5032247;28;20138;-76
2023/01/06 00:39:35;;;;;;;6.95;2.80;;;11.50;99.90;;;;;;5032917;28;20386;-76
2023/01/06 00:42:04;;;;;;;8.90;2.70;;;11.50;99.90;;;;;;5032200;28;20405;-76
2023/01/06 00:44:39;;;;;;;8.27;2.53;;;11.50;99.90;;;;;;5016901;28;20120;-76
2023/01/06 00:47:08;;;;;;;10.73;2.47;;;11.50;99.90;;;;;;5031995;28;20040;-76
2023/01/06 00:49:34;;;;;;;9.50;3.25;;;11.50;99.90;;;;;;5032234;28;20358;-76
2023/01/06 00:51:59;;;;;;;7.05;2.60;;;11.40;99.90;;;;;;5033850;28;20113;-76
2023/01/06 00:54:25;;;;;;;8.15;2.50;;;11.40;99.90;;;;;;5032398;28;20109;-76
2023/01/06 00:56:52;;;;;;;5.35;2.47;;;11.50;99.90;;;;;;5015882;28;20036;-77
2023/01/06 00:59:21;;;;;;;5.95;2.00;;;11.40;99.90;;;;;;5032354;28;20041;-75
2023/01/06 01:01:49;;;;;;;6.90;2.10;;;11.40;99.90;;;;;;5032247;28;20033;-76
2023/01/06 01:04:15;;;;;;;7.55;2.40;;;11.40;99.90;;;;;;5015667;28;20037;-76
2023/01/06 01:06:42;;;;;;;8.32;2.30;;;11.40;99.90;;;;;;5033196;28;20025;-75
2023/01/06 01:09:14;;;;;;;9.45;2.05;;;11.40;99.90;;;;;;5032930;28;20087;-76
2023/01/06 01:14:24;;;;;;;11.48;2.85;;;11.50;99.90;;;;;;5033445;28;20045;-76
2023/01/06 01:16:50;;;;;;;13.18;3.00;;;11.50;99.90;;;;;;5016214;28;20030;-77
2023/01/06 01:19:16;;;;;;;8.40;2.47;;;11.50;99.90;;;;;;5016494;28;20061;-76
2023/01/06 01:21:42;;;;;;;7.75;2.60;;;11.50;99.90;;;;;;5032043;28;20022;-76
2023/01/06 01:24:08;;;;;;;7.53;2.72;;;11.50;99.90;;;;;;5032250;28;20526;-76
2023/01/06 01:26:33;;;;;;;6.88;2.63;;;11.50;99.90;;;;;;5015895;28;20037;-76
2023/01/06 01:29:00;;;;;;;6.35;2.63;;;11.50;99.90;;;;;;5031652;28;20501;-76
2023/01/06 01:31:25;;;;;;;4.90;2.25;;;11.50;99.90;;;;;;5032609;28;20087;-76
2023/01/06 01:33:51;;;;;;;6.53;2.38;;;11.50;99.90;;;;;;5015593;28;20495;-76
2023/01/06 01:36:18;;;;;;;6.50;2.00;;;11.50;99.90;;;;;;5033272;28;20581;-76
2023/01/06 01:38:44;;;;;;;6.50;2.25;;;11.50;99.90;;;;;;5031926;28;20056;-76
2023/01/06 01:41:16;;;;;;;5.75;1.88;;;11.50;99.90;;;;;;5032170;28;20030;-76
2023/01/06 01:43:53;;;;;;;4.93;2.00;;;11.50;99.90;;;;;;5036982;28;20092;-75
2023/01/06 01:46:34;;;;;;;9.50;2.20;;;11.50;99.90;;;;;;5036084;28;20041;-75
2023/01/06 01:49:03;;;;;;;7.75;2.60;;;11.50;99.90;;;;;;5036841;28;20033;-76
2023/01/06 01:51:33;;;;;;;7.00;2.22;;;11.50;99.90;;;;;;5035469;28;20022;-76
2023/01/06 01:54:02;;;;;;;3.35;1.90;;;11.50;99.90;;;;;;5036477;28;20030;-76
2023/01/06 01:56:33;;;;;;;7.65;2.22;;;11.50;99.90;;;;;;5035867;28;20489;-75
2023/01/06 01:59:10;;;;;;;5.75;1.90;;;11.50;99.90;;;;;;5037227;28;20087;-75
2023/01/06 02:01:36;;;;;;;7.25;2.08;;;11.50;99.90;;;;;;5036600;28;20021;-75
2023/01/06 02:04:02;;;;;;;6.00;1.70;;;11.50;99.90;;;;;;5035514;28;20036;-75
2023/01/06 02:06:29;;;;;;;4.88;1.83;;;11.50;99.90;;;;;;5035038;28;20462;-76
2023/01/06 02:09:06;;;;;;;5.95;2.75;;;11.50;99.90;;;;;;5002362;28;20041;-75
2023/01/06 02:11:35;;;;;;;3.42;1.05;;;11.50;99.90;;;;;;5035405;28;20482;-75
2023/01/06 02:14:09;;;;;;;7.32;1.45;;;11.50;99.90;;;;;;5036361;28;20104;-76
2023/01/06 02:16:59;;;;;;;4.55;1.20;;;11.50;99.90;;;;;;5036189;28;20026;-75
2023/01/06 02:19:52;;;;;;;6.45;1.33;;;11.50;99.90;;;;;;5035858;28;20029;-75
2023/01/06 02:22:44;;;;;;;3.38;0.88;;;11.50;99.90;;;;;;5036250;28;20087;-75
2023/01/06 02:25:48;;;;;;;4.90;1.13;;;11.60;99.90;;;;;;5034592;28;20033;-76
2023/01/06 02:28:58;;;;;;;3.15;0.90;;;11.60;99.90;;;;;;5036211;28;20362;-75
2023/01/06 02:31:39;;;;;;;4.90;1.20;;;11.60;99.90;;;;;;5034614;28;20046;-76
2023/01/06 02:34:30;;;;;;;3.75;0.80;;;11.50;99.90;;;;;;5034767;28;20099;-74
2023/01/06 02:37:05;;;;;;;5.95;1.48;;;11.50;99.90;;;;;;5034901;28;20362;-74
2023/01/06 02:39:49;;;;;;;5.57;1.17;;;11.50;99.90;;;;;;5035619;28;20087;-75
2023/01/06 02:42:44;;;;;;;4.65;0.70;;;11.50;99.90;;;;;;5035148;28;20036;-77
2023/01/06 02:45:22;;;;;;;4.32;0.93;;;11.50;99.90;;;;;;5035110;28;20401;-74
2023/01/06 02:48:13;;;;;;;4.00;0.80;;;11.50;99.90;;;;;;5035822;28;20030;-74
2023/01/06 02:51:03;;;;;;;4.47;0.93;;;11.50;99.90;;;;;;5034713;28;20028;-73
2023/01/06 02:53:41;;;;;;;3.58;0.82;;;11.50;99.90;;;;;;5033791;28;20026;-74
2023/01/06 02:56:08;;;;;;;2.95;0.80;;;11.40;99.90;;;;;;5035646;28;20040;-74
2023/01/06 02:59:00;;;;;;;4.25;0.98;;;11.50;99.90;;;;;;5018164;28;20040;-74
2023/01/06 03:01:35;;;;;;;6.25;0.93;;;11.50;99.90;;;;;;5033840;28;20034;-74
2023/01/06 03:04:05;;;;;;;4.07;0.65;;;11.40;99.90;;;;;;5035272;28;20026;-74
2023/01/06 03:06:32;;;;;;;3.70;1.00;;;11.40;99.90;;;;;;5035460;28;20079;-74
2023/01/06 03:09:00;;;;;;;4.53;0.95;;;11.40;99.90;;;;;;5035295;28;20037;-74
2023/01/06 03:11:29;;;;;;;6.40;1.23;;;11.40;99.90;;;;;;5035028;28;20025;-74
2023/01/06 03:14:16;;;;;;;4.78;1.60;;;11.40;99.90;;;;;;5035226;28;20033;-74
2023/01/06 03:16:42;;;;;;;5.03;1.38;;;11.40;99.90;;;;;;5034802;28;20552;-74
2023/01/06 03:19:08;;;;;;;4.65;1.15;;;11.40;99.90;;;;;;5017416;28;20034;-76
2023/01/06 03:21:38;;;;;;;4.07;1.27;;;11.40;99.90;;;;;;5017504;28;20035;-76
2023/01/06 03:24:06;;;;;;;7.30;1.42;;;11.40;99.90;;;;;;5034747;28;20078;-74
2023/01/06 03:26:32;;;;;;;7.43;1.70;;;11.40;99.90;;;;;;5033571;28;20021;-76
2023/01/06 03:28:59;;;;;;;6.50;1.50;;;11.40;99.90;;;;;;5033741;28;20060;-76
2023/01/06 03:31:52;;;;;;;4.50;1.40;;;11.40;99.90;;;;;;5033721;28;20119;-76
2023/01/06 03:34:48;;;;;;;4.55;1.33;;;11.40;99.90;;;;;;5035177;28;20025;-74
2023/01/06 03:37:58;;;;;;;3.78;1.05;;;11.30;99.90;;;;;;5035143;28;20022;-73
2023/01/06 03:40:33;;;;;;;5.78;0.90;;;11.40;99.90;;;;;;5033384;28;20038;-73
2023/01/06 03:43:25;;;;;;;5.80;0.93;;;11.40;99.90;;;;;;5033335;28;20025;-74
2023/01/06 03:46:15;;;;;;;6.25;2.10;;;11.30;99.90;;;;;;5034756;28;20462;-75
2023/01/06 03:48:49;;;;;;;3.75;0.88;;;11.30;99.90;;;;;;5034527;28;20536;-74
2023/01/06 03:51:28;;;;;;;3.97;0.77;;;11.30;99.90;;;;;;5035071;28;20032;-74
2023/01/06 03:54:02;;;;;;;4.15;0.70;;;11.30;99.90;;;;;;5034254;28;20025;-74
2023/01/06 03:56:41;;;;;;;5.05;1.10;;;11.30;99.90;;;;;;5033214;28;20035;-74
2023/01/06 03:59:12;;;;;;;9.00;0.90;;;11.30;99.90;;;;;;5034429;28;20041;-74
2023/01/06 04:01:42;;;;;;;5.38;0.70;;;11.40;99.90;;;;;;5034455;28;20076;-74
2023/01/06 04:04:08;;;;;;;3.10;0.32;;;11.40;99.90;;;;;;5033162;28;20028;-74
2023/01/06 04:06:34;;;;;;;6.47;0.70;;;11.40;99.90;;;;;;5015809;28;20032;-74
2023/01/06 04:08:59;;;;;;;3.13;0.50;;;11.30;99.90;;;;;;5034157;28;20037;-74
2023/01/06 04:14:09;;;;;;;4.78;0.70;;;11.40;99.90;;;;;;5034208;28;20389;-74
2023/01/06 04:16:35;;;;;;;3.42;0.40;;;11.30;99.90;;;;;;5016300;28;20117;-74
2023/01/06 04:19:00;;;;;;;5.65;0.55;;;11.30;99.90;;;;;;5032586;28;20038;-74
2023/01/06 04:21:26;;;;;;;4.75;0.80;;;11.30;99.90;;;;;;5032552;28;20030;-74
2023/01/06 04:23:52;;;;;;;2.28;0.40;;;11.30;99.90;;;;;;5033682;28;20026;-74
2023/01/06 04:26:17;;;;;;;2.78;0.47;;;11.30;99.90;;;;;;5032375;28;20033;-76
2023/01/06 04:28:43;;;;;;;8.88;0.52;;;11.30;99.90;;;;;;5032750;28;20042;-76
2023/01/06 04:31:10;;;;;;;3.60;0.40;;;11.30;99.90;;;;;;5015982;28;20517;-74
2023/01/06 04:33:35;;;;;;;6.25;0.98;;;11.40;99.90;;;;;;5016439;28;20496;-74
2023/01/06 04:36:01;;;;;;;3.13;0.65;;;11.40;99.90;;;;;;5032887;28;20057;-76
2023/01/06 04:38:27;;;;;;;4.85;0.32;;;11.40;99.90;;;;;;5016568;28;20128;-76
2023/01/06 04:40:54;;;;;;;1.55;0.30;;;11.40;99.90;;;;;;5032659;28;20030;-76
2023/01/06 04:43:19;;;;;;;1.55;0.38;;;11.40;99.90;;;;;;5033724;28;20026;-73
2023/01/06 04:45:45;;;;;;;5.30;0.52;;;11.40;99.90;;;;;;4999667;28;20025;-77
2023/01/06 04:48:12;;;;;;;4.47;0.40;;;11.40;99.90;;;;;;5032083;28;20533;-74
2023/01/06 04:50:38;;;;;;;2.58;0.47;;;11.40;99.90;;;;;;5032581;28;20552;-73
2023/01/06 04:53:05;;;;;;;3.50;0.60;;;11.30;99.90;;;;;;5032858;28;20029;-76
2023/01/06 04:55:31;;;;;;;4.95;0.52;;;11.40;99.90;;;;;;5033377;28;20084;-74
2023/01/06 04:57:57;;;;;;;3.83;0.30;;;11.30;99.90;;;;;;5034006;28;20037;-74
2023/01/06 05:00:23;;;;;;;6.20;0.63;;;11.30;99.90;;;;;;5033612;28;20064;-74
2023/01/06 05:02:49;;;;;;;2.72;0.40;;;11.40;99.90;;;;;;5033630;28;20109;-74
2023/01/06 05:05:16;;;;;;;3.33;0.35;;;11.40;99.90;;;;;;5033645;28;20152;-74
2023/01/06 05:07:41;;;;;;;2.50;0.35;;;11.40;99.90;;;;;;5032650;28;20041;-73
2023/01/06 05:10:08;;;;;;;4.70;0.50;;;11.40;99.90;;;;;;5032695;28;20436;-74
2023/01/06 05:12:35;;;;;;;5.50;0.60;;;11.40;99.90;;;;;;5034485;28;20025;-73
2023/01/06 05:15:01;;;;;;;2.20;0.40;;;11.40;99.90;;;;;;5034036;28;20083;-74
2023/01/06 05:17:27;;;;;;;1.83;0.38;;;11.40;99.90;;;;;;5035422;28;20030;-76
2023/01/06 05:19:53;;;;;;;2.75;0.35;;;11.40;99.90;;;;;;5036384;28;20040;-77
2023/01/06 05:22:19;;;;;;;3.15;0.52;;;11.40;99.90;;;;;;5037380;28;20052;-76
2023/01/06 05:24:45;;;;;;;2.85;0.40;;;11.40;99.90;;;;;;5037328;28;20033;-76
2023/01/06 05:27:10;;;;;;;2.92;0.30;;;11.40;99.90;;;;;;5019561;28;20528;-76
2023/01/06 05:29:36;;;;;;;4.93;1.00;;;11.40;99.90;;;;;;5035607;28;20471;-75
2023/01/06 05:32:03;;;;;;;4.20;0.60;;;11.40;99.90;;;;;;5037038;28;20557;-75
2023/01/06 05:34:29;;;;;;;2.72;0.30;;;11.40;99.90;;;;;;5019662;28;20108;-77
2023/01/06 05:36:55;;;;;;;2.28;0.30;;;11.40;99.90;;;;;;5020144;28;20453;-77
2023/01/06 05:39:21;;;;;;;5.68;0.30;;;11.40;99.90;;;;;;5036985;28;20033;-77
2023/01/06 05:41:47;;;;;;;3.97;0.32;;;11.40;99.90;;;;;;5019252;28;20560;-77
2023/01/06 05:44:12;;;;;;;5.18;0.25;;;11.40;99.90;;;;;;5019431;28;20112;-77
2023/01/06 05:46:38;;;;;;;3.17;0.30;;;11.40;99.90;;;;;;5036851;28;20363;-77
2023/01/06 05:49:04;;;;;;;5.35;0.40;;;11.40;99.90;;;;;;5035894;28;20462;-79
2023/01/06 05:51:29;;;;;;;2.88;0.40;;;11.40;99.90;;;;;;5019270;28;20040;-79
2023/01/06 05:53:55;;;;;;;2.72;0.22;;;11.40;99.90;;;;;;5036819;28;20093;-79
2023/01/06 05:56:22;;;;;;;2.25;0.35;;;11.40;99.90;;;;;;5036209;28;20036;-76
2023/01/06 05:58:50;;;;;;;1.77;0.40;;;11.40;99.90;;;;;;5036720;28;20036;-75
2023/01/06 06:01:19;;;;;;;1.67;0.30;;;11.40;99.90;;;;;;5035835;28;20025;-77
2023/01/06 06:03:45;;;;;;;2.63;0.40;;;11.40;99.90;;;;;;5036807;28;20462;-77
2023/01/06 06:06:11;;;;;;;1.20;0.40;;;11.40;99.90;;;;;;5019431;28;20041;-78
2023/01/06 06:08:36;;;;;;;1.95;0.20;;;11.50;99.90;;;;;;5035282;28;20038;-78
2023/01/06 06:11:07;;;;;;;2.47;0.40;;;11.50;99.90;;;;;;5035177;28;20038;-78
2023/01/06 06:13:33;;;;;;;1.65;0.30;;;11.50;99.90;;;;;;5035773;28;20022;-76
2023/01/06 06:16:10;;;;;;;2.40;0.30;;;11.50;99.90;;;;;;5002117;28;20136;-81
2023/01/06 06:18:42;;;;;;;2.85;0.40;;;11.50;99.90;;;;;;5035344;28;20462;-80
2023/01/06 06:21:13;;;;;;;2.45;0.32;;;11.50;99.90;;;;;;5035546;28;20041;-80
2023/01/06 06:23:39;;;;;;;0.85;0.30;;;11.50;99.90;;;;;;5035236;28;20029;-80
2023/01/06 06:26:06;;;;;;;2.05;0.30;;;11.50;99.90;;;;;;5035794;28;20038;-80
2023/01/06 06:28:33;;;;;;;3.05;0.35;;;11.50;99.90;;;;;;5017369;28;20038;-80
2023/01/06 06:31:07;;;;;;;1.20;0.28;;;11.50;99.90;;;;;;5036266;28;20119;-80
2023/01/06 06:33:33;;;;;;;3.70;0.40;;;11.40;99.90;;;;;;5036142;28;20033;-80
2023/01/06 06:36:00;;;;;;;2.92;0.38;;;11.50;99.90;;;;;;5034533;28;20030;-81
2023/01/06 06:38:26;;;;;;;1.02;0.30;;;11.50;99.90;;;;;;5018109;28;20040;-80
2023/01/06 06:40:52;;;;;;;3.22;0.60;;;11.40;99.90;;;;;;5035530;28;20048;-80
2023/01/06 06:43:17;;;;;;;3.38;0.30;;;11.40;99.90;;;;;;5034616;28;20025;-77
2023/01/06 06:45:44;;;;;;;2.25;0.55;;;11.40;99.90;;;;;;5034766;28;20032;-80
2023/01/06 06:48:10;;;;;;;4.00;0.50;;;11.40;99.90;;;;;;5034298;28;20083;-80
2023/01/06 06:50:35;;;;;;;1.05;0.38;;;11.40;99.90;;;;;;5017968;28;20113;-79
2023/01/06 06:53:01;;;;;;;1.67;0.40;;;11.40;99.90;;;;;;5034930;28;20123;-79
2023/01/06 06:55:27;;;;;;;1.60;0.22;;;11.50;99.90;;;;;;5018348;28;20097;-78
2023/01/06 06:57:52;;;;;;;4.13;0.70;;;11.50;99.90;;;;;;5034348;28;20044;-79
2023/01/06 07:00:18;;;;;;;3.15;0.65;;;11.50;99.90;;;;;;5034180;28;20037;-80
2023/01/06 07:02:47;;;;;;;1.85;0.50;;;11.50;99.90;;;;;;5018305;28;20132;-80
2023/01/06 07:05:13;;;;;;;2.67;0.40;;;11.50;99.90;;;;;;5018293;28;20087;-81
2023/01/06 07:07:39;;;;;;;1.00;0.30;;;11.40;99.90;;;;;;5034925;28;20029;-79
2023/01/06 07:10:05;;;;;;;0.82;0.30;;;11.50;99.90;;;;;;5033689;28;20036;-80
2023/01/06 07:12:31;;;;;;;2.60;0.40;;;11.50;99.90;;;;;;5034216;28;20548;-80
2023/01/06 07:14:56;;;;;;;1.05;0.35;;;11.40;99.90;;;;;;5033695;28;20030;-80
2023/01/06 07:17:28;;;;;;;2.38;0.45;;;11.50;99.90;;;;;;5034980;28;20071;-80
2023/01/06 07:19:54;;;;;;;1.60;0.47;;;11.50;99.90;;;;;;5033513;28;20036;-79
2023/01/06 07:22:20;;;;;;;1.40;0.40;;;11.50;99.90;;;;;;5017491;28;20029;-78
2023/01/06 07:24:45;;;;;;;2.58;0.45;;;11.50;99.90;;;;;;5034492;28;20025;-78
2023/01/06 07:27:11;;;;;;;2.15;0.57;;;11.40;99.90;;;;;;5017290;28;20493;-78
2023/01/06 07:29:37;;;;;;;4.60;0.70;;;11.40;99.90;;;;;;5000548;28;20478;-78
2023/01/06 07:32:03;;;;;;;1.38;0.52;;;11.40;99.90;;;;;;5034075;28;20037;-78
2023/01/06 07:34:28;;;;;;;4.20;0.60;;;11.40;99.90;;;;;;5034052;28;20026;-79
2023/01/06 07:36:54;;;;;;;4.82;1.00;;;11.40;99.90;;;;;;5017147;28;20030;-77
2023/01/06 07:39:20;;;;;;;1.33;1.00;;;11.40;99.90;;;;;;5016871;28;20029;-78
2023/01/06 07:41:45;;;;;;;1.48;0.90;;;11.30;99.90;;;;;;5033674;28;20442;-77
2023/01/06 07:44:11;;;;;;;1.90;1.15;;;11.30;99.90;;;;;;5033312;28;20446;-77
2023/01/06 07:46:36;;;;;;;2.60;1.00;;;11.20;99.90;;;;;;5016770;28;20452;-77
2023/01/06 07:49:02;;;;;;;2.33;1.35;;;11.20;99.90;;;;;;5016594;28;20029;-77
2023/01/06 07:51:28;;;;;;;2.72;2.40;;;11.20;99.90;;;;;;5016380;28;20037;-79
2023/01/06 07:53:53;;;;;;;3.60;1.55;;;11.10;99.90;;;;;;5033389;28;20029;-74
2023/01/06 07:56:20;;;;;;;3.45;2.20;;;11.10;99.90;;;;;;5000678;28;20034;-74
2023/01/06 07:58:46;;;;;;;2.97;2.10;;;11.00;99.90;;;;;;5034354;28;20168;-74
2023/01/06 08:01:12;;;;;;;4.22;2.53;;;11.00;99.90;;;;;;5033468;28;20061;-73
2023/01/06 08:03:38;;;;;;;3.75;2.40;;;11.00;99.90;;;;;;5033078;28;20114;-73
2023/01/06 08:06:09;;;;;;;3.05;2.67;;;11.00;99.90;;;;;;5032895;28;20121;-73
2023/01/06 08:08:39;;;;;;;3.78;2.60;;;11.00;99.90;;;;;;5033286;28;20140;-73
2023/01/06 08:11:06;;;;;;;3.60;2.55;;;11.00;99.90;;;;;;5033141;28;20033;-73
2023/01/06 08:13:32;;;;;;;4.00;2.50;;;11.00;99.90;;;;;;5033261;28;20064;-73
2023/01/06 08:15:59;;;;;;;3.55;3.25;;;11.00;99.90;;;;;;5016326;28;20025;-73
2023/01/06 08:18:24;;;;;;;3.20;2.90;;;11.00;99.90;;;;;;5033707;28;20041;-73
2023/01/06 08:20:50;;;;;;;4.32;3.53;;;11.00;99.90;;;;;;5033988;28;20481;-75
2023/01/06 08:23:16;;;;;;;4.47;3.35;;;11.00;99.90;;;;;;5034276;28;20061;-77
2023/01/06 08:25:41;;;;;;;3.05;2.70;;;11.00;99.90;;;;;;5032688;28;20029;-72
2023/01/06 08:28:07;;;;;;;3.83;3.03;;;11.00;99.90;;;;;;5032668;28;20037;-75
2023/01/06 08:30:38;;;;;;;4.30;3.38;;;11.10;99.90;;;;;;5032746;28;20186;-74
2023/01/06 08:33:04;;;;;;;3.22;3.00;;;11.10;99.90;;;;;;5033113;28;20034;-76
2023/01/06 08:35:30;;;;;;;3.50;3.25;;;11.10;99.90;;;;;;5033101;28;20040;-77
2023/01/06 08:37:55;;;;;;;3.45;3.15;;;11.00;99.90;;;;;;5016134;28;20418;-76
2023/01/06 08:40:21;;;;;;;3.20;2.85;;;11.10;99.90;;;;;;5032798;28;20466;-76
2023/01/06 08:42:47;;;;;;;3.83;3.38;;;11.10;99.90;;;;;;5032163;28;20354;-77
2023/01/06 08:45:12;;;;;;;4.22;3.55;;;11.10;99.90;;;;;;5032816;28;20029;-77
2023/01/06 08:47:38;;;;;;;4.63;3.17;;;11.10;99.90;;;;;;5033493;28;20033;-76
2023/01/06 08:50:05;;;;;;;3.72;3.38;;;11.20;99.90;;;;;;5032400;28;20524;-76
2023/01/06 08:52:30;;;;;;;3.45;3.15;;;11.20;99.90;;;;;;5031733;28;20026;-76
2023/01/06 08:54:58;;;;;;;3.60;3.33;;;11.20;99.90;;;;;;5032404;28;20036;-76
2023/01/06 08:57:24;;;;;;;3.50;3.28;;;11.20;99.90;;;;;;5033037;28;20037;-76
2023/01/06 08:59:50;;;;;;;3.70;3.08;;;11.30;99.90;;;;;;5000322;28;20038;-76
2023/01/06 09:02:15;;;;;;;3.85;3.20;;;11.30;99.90;;;;;;5032639;28;20374;-75
2023/01/06 09:04:42;;;;;;;5.55;3.13;;;11.40;99.90;;;;;;5033572;28;20029;-76
2023/01/06 09:07:08;;;;;;;3.40;3.10;;;11.40;99.90;;;;;;5015901;28;20030;-76
2023/01/06 09:09:33;;;;;;;3.10;2.70;;;11.40;99.90;;;;;;4999132;28;20044;-76
2023/01/06 09:11:59;;;;;;;2.85;2.55;;;11.40;99.90;;;;;;5032942;28;20176;-76
2023/01/06 09:14:25;;;;;;;4.72;3.00;;;11.40;99.90;;;;;;5032195;28;20040;-77
2023/01/06 09:16:50;;;;;;;2.97;2.20;;;11.40;99.90;;;;;;5033030;28;20378;-77
2023/01/06 09:19:16;;;;;;;2.92;1.80;;;11.40;99.90;;;;;;5032607;28;20044;-77
2023/01/06 09:21:42;;;;;;;4.05;1.75;;;11.50;99.90;;;;;;5032117;28;20328;-77
2023/01/06 09:24:12;;;;;;;3.47;1.20;;;11.60;99.90;;;;;;5032138;28;20363;-77
2023/01/06 09:26:38;;;;;;;4.10;1.25;;;11.60;99.90;;;;;;5015349;28;20080;-78
2023/01/06 09:29:03;;;;;;;5.47;0.88;;;11.70;99.90;;;;;;5015649;28;20038;-73
2023/01/06 09:31:29;;;;;;;3.50;1.00;;;11.80;99.90;;;;;;5031887;28;20402;-72
2023/01/06 09:33:55;;;;;;;5.95;0.75;;;11.80;99.90;;;;;;5015317;28;20036;-72
2023/01/06 09:36:21;;;;;;;2.58;0.50;;;11.90;99.90;;;;;;5031647;28;20040;-72
2023/01/06 09:38:46;;;;;;;4.63;0.80;;;11.90;99.90;;;;;;5033187;28;20038;-72
2023/01/06 09:41:41;;;;;;;4.32;0.85;;;12.00;99.90;;;;;;5033109;28;20109;-72
2023/01/06 09:44:12;;;;;;;5.93;0.68;;;12.00;99.90;;;;;;5033028;28;20067;-72
2023/01/06 09:46:42;;;;;;;8.02;0.88;;;12.00;99.90;;;;;;5032482;28;20021;-72
2023/01/06 09:49:36;;;;;;;3.85;0.73;;;11.90;99.90;;;;;;5032001;28;20124;-72
2023/01/06 09:52:35;;;;;;;5.57;0.82;;;12.00;99.90;;;;;;5031693;28;20029;-72
2023/01/06 09:55:23;;;;;;;7.03;0.80;;;11.90;99.90;;;;;;5032587;28;20025;-73
2023/01/06 09:57:59;;;;;;;6.38;1.02;;;11.90;99.90;;;;;;5032544;28;20038;-73
2023/01/06 10:00:34;;;;;;;7.28;1.05;;;11.90;99.90;;;;;;5031927;28;20033;-74
2023/01/06 10:02:59;;;;;;;5.80;1.50;;;11.80;99.90;;;;;;5032846;28;20033;-73
2023/01/06 10:05:37;;;;;;;8.73;1.23;;;11.80;99.90;;;;;;5035017;28;20467;-73
2023/01/06 10:08:09;;;;;;;12.52;1.25;;;11.80;99.90;;;;;;5035862;28;20041;-74
2023/01/06 10:10:42;;;;;;;6.00;1.30;;;11.80;99.90;;;;;;5034605;28;20067;-73
2023/01/06 10:13:43;;;;;;;10.15;1.20;;;11.80;99.90;;;;;;5036788;28;20028;-74
2023/01/06 10:16:27;;;;;;;8.10;1.30;;;11.90;99.90;;;;;;5034906;28;20036;-73
2023/01/06 10:19:20;;;;;;;9.45;1.80;;;12.00;99.90;;;;;;5034624;28;20033;-74
2023/01/06 10:21:49;;;;;;;;;;;12.10;99.90;;;;;;5035654;28;20026;-74
2023/01/06 10:24:39;;;;;;;5.03;0.80;;;12.20;99.90;;;;;;5036325;28;19909;-74
2023/01/06 10:27:33;;;;;;;7.00;0.60;;;12.30;99.90;;;;;;5035034;28;20079;-74
2023/01/06 10:30:02;;;;;;;6.25;0.65;;;12.40;99.90;;;;;;5034984;28;20053;-74
2023/01/06 10:32:31;;;;;;;11.50;1.05;;;12.60;99.90;;;;;;5034376;28;20112;-72
2023/01/06 10:34:58;;;;;;;5.10;0.65;;;12.60;99.90;;;;;;5034544;28;20064;-73
2023/01/06 10:37:45;;;;;;;8.65;0.55;;;12.70;99.90;;;;;;5018176;28;20040;-74
2023/01/06 10:40:22;;;;;;;9.15;0.60;;;12.70;99.90;;;;;;5035682;28;20044;-73
2023/01/06 10:42:56;;;;;;;6.53;0.60;;;12.70;99.90;;;;;;5034203;28;20359;-75
2023/01/06 10:45:40;;;;;;;11.43;0.98;;;12.80;99.90;;;;;;5034785;28;20470;-74
2023/01/06 10:48:10;;;;;;;6.10;0.60;;;12.80;99.90;;;;;;5034870;28;20117;-74
2023/01/06 10:50:36;;;;;;;11.50;0.60;;;12.90;99.90;;;;;;5035704;28;20025;-75
2023/01/06 10:53:03;;;;;;;6.38;0.47;;;12.90;99.90;;;;;;5034274;28;20034;-75
2023/01/06 10:55:47;;;;;;;7.65;0.47;;;12.90;99.90;;;;;;5035333;28;20116;-74
2023/01/06 10:58:23;;;;;;;6.05;1.02;;;13.00;99.90;;;;;;5033827;28;20436;-75
2023/01/06 11:01:00;;;;;;;6.57;0.80;;;13.00;99.90;;;;;;5035663;28;20028;-73
2023/01/06 11:03:27;;;;;;;11.07;0.93;;;13.00;99.90;;;;;;5034258;28;20458;-75
2023/01/06 11:06:03;;;;;;;7.05;0.68;;;13.00;99.90;;;;;;5017964;28;20033;-75
2023/01/06 11:08:29;;;;;;;8.05;0.70;;;13.10;99.90;;;;;;5035558;28;20049;-75
2023/01/06 11:10:58;;;;;;;5.63;1.15;;;13.10;99.90;;;;;;5035145;28;20179;-75
2023/01/06 11:13:52;;;;;;;5.43;0.50;;;13.00;99.90;;;;;;5018452;28;20091;-75
2023/01/06 11:16:23;;;;;;;7.43;0.40;;;13.00;99.90;;;;;;5034388;28;20037;-75
2023/01/06 11:18:57;;;;;;;4.70;0.88;;;13.00;99.90;;;;;;5035050;28;20033;-74
2023/01/06 11:21:38;;;;;;;6.00;1.23;;;12.90;99.90;;;;;;5034685;28;20026;-75
2023/01/06 11:24:21;;;;;;;5.80;0.55;;;12.80;99.90;;;;;;5034601;28;20032;-75
2023/01/06 11:26:59;;;;;;;10.40;0.50;;;12.80;99.90;;;;;;5033436;28;20022;-74
2023/01/06 11:29:34;;;;;;;5.63;0.40;;;12.70;99.20;;;;;;5034038;28;20034;-74
2023/01/06 11:32:14;;;;;;;3.85;0.35;;;12.60;99.20;;;;;;5033532;28;20147;-75
2023/01/06 11:34:49;;;;;;;5.95;0.82;;;12.60;99.50;;;;;;5033932;28;20172;-74
2023/01/06 11:37:15;;;;;;;5.10;0.40;;;12.60;99.60;;;;;;5033348;28;20033;-74
2023/01/06 11:39:41;;;;;;;4.68;0.30;;;12.60;99.80;;;;;;5016646;28;20076;-74
2023/01/06 11:42:13;;;;;;;11.85;1.63;;;12.60;99.90;;;;;;5017059;28;20120;-75
2023/01/06 11:44:42;;;;;;;6.40;0.30;;;12.60;99.80;;;;;;5033705;28;20029;-74
2023/01/06 11:47:15;;;;;;;3.05;0.40;;;12.60;99.90;;;;;;5016091;28;20052;-75
2023/01/06 11:49:51;;;;;;;10.15;1.13;;;12.70;99.90;;;;;;5033448;28;20052;-74
2023/01/06 11:52:16;;;;;;;7.07;0.32;;;12.60;99.90;;;;;;5034303;28;20458;-75
2023/01/06 11:54:42;;;;;;;4.55;0.50;;;12.60;99.90;;;;;;5033999;28;20035;-74
2023/01/06 11:57:29;;;;;;;4.30;0.32;;;12.60;99.90;;;;;;5016547;28;20116;-74
2023/01/06 12:00:04;;;;;;;6.50;0.93;;;12.60;99.90;;;;;;5034191;28;20108;-75
2023/01/06 12:03:15;;;;;;;6.75;0.50;;;12.60;99.90;;;;;;5033505;28;20109;-75
2023/01/06 12:05:53;;;;;;;5.75;0.30;;;12.60;99.90;;;;;;5030273;28;20124;-74
2023/01/06 12:08:27;;;;;;;5.28;0.63;;;12.70;99.90;;;;;;5034213;28;20151;-74
2023/01/06 12:10:59;;;;;;;3.47;0.30;;;12.70;99.90;;;;;;5032753;28;20032;-76
2023/01/06 12:13:26;;;;;;;6.68;0.40;;;12.70;99.90;;;;;;5032813;28;20529;-75
2023/01/06 12:16:06;;;;;;;7.75;0.60;;;12.70;99.90;;;;;;5032361;28;20032;-74
2023/01/06 12:18:35;;;;;;;4.82;0.77;;;12.80;99.90;;;;;;5033717;28;20380;-78
2023/01/06 12:21:02;;;;;;;5.18;0.40;;;12.70;99.90;;;;;;5021763;28;20060;-78
2023/01/06 12:23:35;;;;;;;5.25;0.47;;;12.70;99.90;;;;;;5039939;28;20030;-78
2023/01/06 12:26:08;;;;;;;4.63;0.50;;;12.70;99.90;;;;;;5036790;28;20079;-76
2023/01/06 12:28:41;;;;;;;4.63;0.60;;;12.80;99.90;;;;;;5038114;28;20036;-78
2023/01/06 12:31:36;;;;;;;4.97;0.57;;;12.80;99.90;;;;;;5041244;28;20046;-77
2023/01/06 12:34:19;;;;;;;8.90;0.60;;;12.80;99.90;;;;;;5034546;28;20033;-79
2023/01/06 12:37:23;;;;;;;6.47;0.50;;;12.90;99.90;;;;;;5042261;28;20056;-78
2023/01/06 12:40:01;;;;;;;2.50;0.38;;;12.90;99.90;;;;;;5044661;28;20083;-79
2023/01/06 12:42:36;;;;;;;7.93;0.68;;;13.00;99.90;;;;;;5040544;28;20042;-75
2023/01/06 12:45:13;;;;;;;2.70;0.35;;;13.00;99.90;;;;;;5031658;28;20034;-76
2023/01/06 12:47:42;;;;;;;5.10;0.30;;;13.10;99.90;;;;;;5032762;28;20079;-75
2023/01/06 12:50:26;;;;;;;2.45;0.55;;;13.00;99.00;;;;;;5031559;28;20025;-75
2023/01/06 12:53:02;;;;;;;3.60;0.65;;;13.00;99.00;;;;;;5033254;28;20029;-76
2023/01/06 12:55:48;;;;;;;3.50;0.30;;;13.00;98.10;;;;;;5031786;28;20025;-76
2023/01/06 12:58:45;;;;;;;3.63;0.25;;;13.00;97.30;;;;;;5031340;28;20042;-75
2023/01/06 13:01:28;;;;;;;3.47;0.30;;;13.00;97.10;;;;;;5033511;28;20084;-77
2023/01/06 13:04:15;;;;;;;3.38;0.22;;;13.00;96.20;;;;;;5033094;28;20033;-76
2023/01/06 13:07:16;;;;;;;3.78;0.30;;;13.00;96.50;;;;;;5033612;28;20029;-76
2023/01/06 13:10:10;;;;;;;2.47;0.28;;;12.90;95.50;;;;;;5032852;28;20111;-75
2023/01/06 13:12:51;;;;;;;4.55;0.25;;;13.00;96.20;;;;;;5031651;28;20033;-75